Time;durP1;ratioP1;P1;durP2;ratioP2;P2;SDS_P1;SDS_P2;PMS_P1;PMS_P2;Temp;Humidity;BMP_temperature;BMP_pressure;BME280_temperature;BME280_humidity;BME280_pressure;Samples;Min_cycle;Max_cycle;Signal;HPM_P1;HPM_P2
2022/12/21 00:01:59;;;;;;;0.10;0.10;;;6.10;99.90;;;;;;5056415;28;20269;-80
2022/12/21 00:04:26;;;;;;;0.10;0.10;;;6.10;99.90;;;;;;5056279;28;20266;-80
2022/12/21 00:06:51;;;;;;;0.00;0.00;;;6.10;99.90;;;;;;5057701;28;20224;-79
2022/12/21 00:09:18;;;;;;;0.10;0.10;;;6.20;99.90;;;;;;5057874;28;20210;-80
2022/12/21 00:11:44;;;;;;;0.13;0.13;;;6.20;99.90;;;;;;5057495;28;20693;-79
2022/12/21 00:14:10;;;;;;;0.03;0.03;;;6.20;99.90;;;;;;5072826;28;20239;-80
2022/12/21 00:16:39;;;;;;;0.10;0.10;;;6.30;99.90;;;;;;5056154;28;20228;-80
2022/12/21 00:19:05;;;;;;;0.10;0.10;;;6.40;99.90;;;;;;5056764;28;20239;-80
2022/12/21 00:21:33;;;;;;;0.10;0.10;;;6.40;99.90;;;;;;5054309;28;20196;-80
2022/12/21 00:23:59;;;;;;;0.10;0.10;;;6.30;99.90;;;;;;5057104;28;20658;-80
2022/12/21 00:26:30;;;;;;;0.10;0.10;;;6.30;99.90;;;;;;5056573;28;20309;-80
2022/12/21 00:28:57;;;;;;;0.07;0.07;;;6.20;99.90;;;;;;5056126;28;20223;-80
2022/12/21 00:31:26;;;;;;;0.10;0.10;;;6.10;99.90;;;;;;5072825;28;20204;-80
2022/12/21 00:33:52;;;;;;;0.10;0.10;;;6.20;99.90;;;;;;5054569;28;20654;-80
2022/12/21 00:36:19;;;;;;;0.10;0.10;;;6.20;99.90;;;;;;5057104;28;20194;-80
2022/12/21 00:38:48;;;;;;;0.10;0.10;;;6.20;99.90;;;;;;5071265;28;20211;-80
2022/12/21 00:41:17;;;;;;;0.10;0.10;;;6.30;99.90;;;;;;5070812;28;20177;-80
2022/12/21 00:43:43;;;;;;;0.10;0.10;;;6.30;99.90;;;;;;5072361;28;20207;-80
2022/12/21 00:46:30;;;;;;;0.10;0.10;;;6.30;99.90;;;;;;5054209;28;20214;-80
2022/12/21 00:49:01;;;;;;;0.10;0.10;;;6.30;99.90;;;;;;5054812;28;20202;-80
2022/12/21 00:51:28;;;;;;;0.10;0.10;;;6.30;99.90;;;;;;5070843;28;20176;-80
2022/12/21 00:53:55;;;;;;;0.10;0.10;;;6.30;99.90;;;;;;5055899;28;20213;-80
2022/12/21 00:56:21;;;;;;;0.10;0.10;;;6.40;99.90;;;;;;5055905;28;20216;-80
2022/12/21 00:58:48;;;;;;;0.10;0.10;;;6.40;99.90;;;;;;5053979;28;20225;-80
2022/12/21 01:01:17;;;;;;;0.10;0.10;;;6.40;99.90;;;;;;5073149;28;20192;-80
2022/12/21 01:03:43;;;;;;;0.10;0.10;;;6.40;99.90;;;;;;5072025;28;21029;-80
2022/12/21 01:06:19;;;;;;;0.10;0.10;;;6.50;99.90;;;;;;5069533;28;20274;-81
2022/12/21 01:08:45;;;;;;;0.10;0.10;;;6.50;99.90;;;;;;5072006;28;20593;-80
2022/12/21 01:11:12;;;;;;;0.10;0.10;;;6.50;99.90;;;;;;5072176;28;20183;-81
2022/12/21 01:13:39;;;;;;;0.10;0.10;;;6.60;99.90;;;;;;5071697;28;20243;-80
2022/12/21 01:16:10;;;;;;;0.10;0.10;;;6.60;99.90;;;;;;5070021;28;20216;-80
2022/12/21 01:18:36;;;;;;;0.10;0.10;;;6.70;99.90;;;;;;5072754;28;20179;-80
2022/12/21 01:21:01;;;;;;;0.10;0.10;;;6.80;99.90;;;;;;5070603;28;20721;-81
2022/12/21 01:23:27;;;;;;;0.10;0.10;;;6.90;99.90;;;;;;5056162;28;20185;-81
2022/12/21 01:25:52;;;;;;;0.10;0.10;;;7.00;99.90;;;;;;5070272;28;20250;-80
2022/12/21 01:28:18;;;;;;;0.10;0.10;;;6.80;99.90;;;;;;5072095;28;20181;-80
2022/12/21 01:30:44;;;;;;;0.10;0.10;;;6.80;99.90;;;;;;5067346;28;20242;-80
2022/12/21 01:33:15;;;;;;;0.10;0.10;;;6.80;99.90;;;;;;5071005;28;20297;-80
2022/12/21 01:35:42;;;;;;;0.10;0.10;;;6.80;99.90;;;;;;5055025;28;20191;-80
2022/12/21 01:38:09;;;;;;;0.10;0.10;;;6.70;99.90;;;;;;5069419;28;20657;-80
2022/12/21 01:40:35;;;;;;;0.10;0.10;;;6.60;99.90;;;;;;5070622;28;20291;-80
2022/12/21 01:43:01;;;;;;;0.10;0.10;;;6.50;99.90;;;;;;5055821;28;20239;-80
2022/12/21 01:45:31;;;;;;;0.10;0.10;;;6.40;99.90;;;;;;5054080;28;20181;-81
2022/12/21 01:48:00;;;;;;;0.10;0.10;;;6.40;99.90;;;;;;5055675;28;20222;-81
2022/12/21 01:50:50;;;;;;;0.10;0.10;;;6.40;99.90;;;;;;5070997;28;20266;-81
2022/12/21 01:53:45;;;;;;;0.10;0.10;;;6.50;99.90;;;;;;5070564;28;20188;-80
2022/12/21 01:56:14;;;;;;;0.10;0.10;;;6.40;99.90;;;;;;5038603;28;20194;-80
2022/12/21 01:58:40;;;;;;;0.10;0.10;;;6.40;99.90;;;;;;5055430;28;20223;-80
2022/12/21 02:01:06;;;;;;;0.10;0.10;;;6.50;99.90;;;;;;5054533;28;20718;-80
2022/12/21 02:03:35;;;;;;;0.10;0.10;;;6.50;99.90;;;;;;5071133;28;20185;-80
2022/12/21 02:06:09;;;;;;;0.10;0.10;;;6.40;99.90;;;;;;5073802;28;20209;-81
2022/12/21 02:08:34;;;;;;;0.10;0.10;;;6.50;99.90;;;;;;5054034;28;20212;-80
2022/12/21 02:11:01;;;;;;;0.10;0.10;;;6.50;99.90;;;;;;5053862;28;21542;-81
2022/12/21 02:13:27;;;;;;;0.10;0.10;;;6.60;99.90;;;;;;5071369;28;20209;-80
2022/12/21 02:15:59;;;;;;;0.10;0.10;;;6.60;99.90;;;;;;5069670;28;20193;-80
2022/12/21 02:19:18;;;;;;;0.10;0.10;;;6.60;99.90;;;;;;5073382;28;20215;-80
2022/12/21 02:21:55;;;;;;;0.00;0.00;;;6.60;99.90;;;;;;5018894;28;20260;-80
2022/12/21 02:24:32;;;;;;;0.10;0.10;;;6.60;99.90;;;;;;5000148;28;20195;-80
2022/12/21 02:27:21;;;;;;;0.10;0.10;;;6.60;99.90;;;;;;5039574;28;21017;-80
2022/12/21 02:29:58;;;;;;;0.10;0.10;;;6.50;99.90;;;;;;5071165;28;20302;-80
2022/12/21 02:32:42;;;;;;;0.10;0.10;;;6.50;99.90;;;;;;5054583;28;21449;-80
2022/12/21 02:35:16;;;;;;;0.10;0.10;;;6.50;99.90;;;;;;5073846;28;20192;-80
2022/12/21 02:37:44;;;;;;;0.10;0.10;;;6.50;99.90;;;;;;5071140;28;20251;-81
2022/12/21 02:40:26;;;;;;;0.10;0.10;;;6.60;99.90;;;;;;5068898;28;20234;-81
2022/12/21 02:46:16;;;;;;;0.10;0.10;;;6.50;99.90;;;;;;5056268;28;20212;-81
2022/12/21 02:49:11;;;;;;;0.10;0.10;;;6.40;99.90;;;;;;5072364;28;20209;-80
2022/12/21 02:51:41;;;;;;;0.10;0.10;;;6.50;99.90;;;;;;5054473;28;20186;-80
2022/12/21 02:54:09;;;;;;;0.10;0.10;;;6.40;99.90;;;;;;5053151;28;20175;-80
2022/12/21 02:56:35;;;;;;;0.10;0.10;;;6.50;99.90;;;;;;5058072;28;20237;-80
2022/12/21 02:59:01;;;;;;;0.10;0.10;;;6.40;99.90;;;;;;5069454;28;20219;-80
2022/12/21 03:01:54;;;;;;;0.10;0.10;;;6.50;99.90;;;;;;5055639;28;20192;-80
2022/12/21 03:04:47;;;;;;;0.10;0.10;;;6.40;99.90;;;;;;5071833;28;20185;-80
2022/12/21 03:07:44;;;;;;;0.10;0.10;;;6.40;99.90;;;;;;5054083;28;20720;-80
2022/12/21 03:10:31;;;;;;;0.10;0.10;;;6.50;99.90;;;;;;5070954;28;20689;-81
2022/12/21 03:13:14;;;;;;;0.10;0.10;;;6.40;99.90;;;;;;5056094;28;20235;-80
2022/12/21 03:16:01;;;;;;;0.10;0.10;;;6.50;99.90;;;;;;5072022;28;20175;-80
2022/12/21 03:18:54;;;;;;;0.10;0.10;;;6.50;99.90;;;;;;5054484;28;20257;-80
2022/12/21 03:21:27;;;;;;;0.10;0.10;;;6.50;99.90;;;;;;5055376;28;20186;-81
2022/12/21 03:24:08;;;;;;;0.10;0.10;;;6.50;99.90;;;;;;5052810;28;20932;-80
2022/12/21 03:26:42;;;;;;;0.10;0.10;;;6.50;99.90;;;;;;5070416;28;20206;-80
2022/12/21 03:29:13;;;;;;;0.10;0.10;;;6.50;99.90;;;;;;5068673;28;20201;-80
2022/12/21 03:31:43;;;;;;;0.10;0.10;;;6.50;99.90;;;;;;5068843;28;20182;-80
2022/12/21 03:34:28;;;;;;;0.10;0.10;;;6.60;99.90;;;;;;5071192;28;20199;-81
2022/12/21 03:37:07;;;;;;;0.10;0.10;;;6.70;99.90;;;;;;5053085;28;21230;-80
2022/12/21 03:39:36;;;;;;;0.00;0.00;;;6.60;99.90;;;;;;5068953;28;20204;-80
2022/12/21 03:42:13;;;;;;;0.10;0.10;;;6.60;99.90;;;;;;5052907;28;20611;-81
2022/12/21 03:44:51;;;;;;;0.10;0.10;;;6.60;99.90;;;;;;5055661;28;20250;-80
2022/12/21 03:47:29;;;;;;;0.10;0.10;;;6.70;99.90;;;;;;5070989;28;20316;-80
2022/12/21 03:50:00;;;;;;;0.10;0.10;;;6.80;99.90;;;;;;5071784;28;20578;-81
2022/12/21 03:52:49;;;;;;;0.10;0.10;;;6.80;99.90;;;;;;5071349;28;20185;-80
2022/12/21 03:55:24;;;;;;;0.10;0.10;;;6.90;99.90;;;;;;5072013;28;20649;-79
2022/12/21 03:57:52;;;;;;;0.10;0.10;;;6.90;99.90;;;;;;5070451;28;20210;-80
2022/12/21 04:00:18;;;;;;;0.10;0.10;;;6.80;99.90;;;;;;5054263;28;20225;-81
2022/12/21 04:02:56;;;;;;;0.10;0.10;;;6.90;99.90;;;;;;5070403;28;20299;-80
2022/12/21 04:05:35;;;;;;;0.10;0.10;;;7.00;99.90;;;;;;5070986;28;20187;-81
2022/12/21 04:08:01;;;;;;;0.23;0.23;;;7.10;99.90;;;;;;5070071;28;20700;-80
2022/12/21 04:10:27;;;;;;;0.10;0.10;;;7.20;99.90;;;;;;5069615;28;20194;-80
2022/12/21 04:12:53;;;;;;;0.10;0.10;;;7.30;99.90;;;;;;5055622;28;20218;-80
2022/12/21 04:15:21;;;;;;;0.10;0.10;;;7.40;99.90;;;;;;5071265;28;20280;-80
2022/12/21 04:17:49;;;;;;;0.10;0.10;;;7.30;99.90;;;;;;5058629;28;20197;-80
2022/12/21 04:20:21;;;;;;;0.10;0.10;;;7.30;99.90;;;;;;5070056;28;20695;-80
2022/12/21 04:28:27;;;;;;;0.10;0.10;;;7.00;99.90;;;;;;5056360;28;20700;-80
2022/12/21 04:30:53;;;;;;;0.10;0.10;;;7.10;99.90;;;;;;5057050;28;20177;-81
2022/12/21 04:33:20;;;;;;;0.10;0.10;;;7.20;99.90;;;;;;5055677;28;20177;-80
2022/12/21 04:38:37;;;;;;;0.10;0.10;;;7.20;99.90;;;;;;5057119;28;21078;-80
2022/12/21 04:41:02;;;;;;;0.10;0.10;;;7.10;99.90;;;;;;5069860;28;20186;-80
2022/12/21 04:43:28;;;;;;;0.10;0.10;;;7.00;99.90;;;;;;5072306;28;20184;-80
2022/12/21 04:46:04;;;;;;;0.10;0.10;;;7.10;99.90;;;;;;5055185;28;20300;-80
2022/12/21 04:48:30;;;;;;;0.10;0.10;;;7.10;99.90;;;;;;5069704;28;20208;-80
2022/12/21 04:50:55;;;;;;;0.10;0.10;;;7.10;99.90;;;;;;5052681;28;20231;-80
2022/12/21 04:53:22;;;;;;;0.10;0.10;;;7.10;99.90;;;;;;5055272;28;20187;-80
2022/12/21 04:55:47;;;;;;;0.10;0.10;;;7.00;99.90;;;;;;5068727;28;20216;-80
2022/12/21 04:58:13;;;;;;;0.10;0.10;;;7.00;99.90;;;;;;5069558;28;20199;-81
2022/12/21 05:00:38;;;;;;;0.10;0.10;;;7.10;99.90;;;;;;5070953;28;20203;-81
2022/12/21 05:03:04;;;;;;;0.10;0.10;;;7.10;99.90;;;;;;5070153;28;20379;-80
2022/12/21 05:05:30;;;;;;;0.10;0.10;;;7.10;99.90;;;;;;5070188;28;20232;-80
2022/12/21 05:07:56;;;;;;;0.00;0.00;;;7.00;99.90;;;;;;5053758;28;20710;-80
2022/12/21 05:10:22;;;;;;;0.10;0.10;;;7.00;99.90;;;;;;5068051;28;20210;-80
2022/12/21 05:12:47;;;;;;;0.10;0.10;;;7.00;99.90;;;;;;5054011;28;20271;-80
2022/12/21 05:15:13;;;;;;;0.10;0.10;;;7.20;99.90;;;;;;5068542;28;20297;-80
2022/12/21 05:17:42;;;;;;;0.00;0.00;;;7.20;99.90;;;;;;5071113;28;20175;-80
2022/12/21 05:20:08;;;;;;;0.10;0.10;;;7.30;99.90;;;;;;5069781;28;20217;-81
2022/12/21 05:22:33;;;;;;;0.10;0.10;;;7.20;99.90;;;;;;5055798;28;20189;-81
2022/12/21 05:24:59;;;;;;;0.10;0.10;;;7.20;99.90;;;;;;5069276;28;20662;-80
2022/12/21 05:27:24;;;;;;;0.10;0.10;;;7.10;99.90;;;;;;5068715;28;20227;-80
2022/12/21 05:29:50;;;;;;;0.10;0.10;;;7.00;99.90;;;;;;5068445;28;20224;-80
2022/12/21 05:32:16;;;;;;;0.10;0.10;;;7.00;99.90;;;;;;5069045;28;20209;-80
2022/12/21 05:34:41;;;;;;;0.10;0.10;;;6.90;99.90;;;;;;5069848;28;20236;-80
2022/12/21 05:37:07;;;;;;;0.10;0.10;;;6.90;99.90;;;;;;5053325;28;20206;-80
2022/12/21 05:39:34;;;;;;;0.10;0.10;;;6.90;99.90;;;;;;5051966;28;20283;-80
2022/12/21 05:42:01;;;;;;;0.10;0.10;;;6.90;99.90;;;;;;5068725;28;20192;-80
2022/12/21 05:44:27;;;;;;;0.10;0.10;;;6.90;99.90;;;;;;5068337;28;20185;-80
2022/12/21 05:46:53;;;;;;;0.10;0.10;;;6.80;99.90;;;;;;5069325;28;20723;-80
2022/12/21 05:49:18;;;;;;;0.10;0.10;;;6.80;99.90;;;;;;5069003;28;20205;-80
2022/12/21 05:51:47;;;;;;;0.10;0.10;;;6.80;99.90;;;;;;5067906;28;20199;-81
2022/12/21 05:54:13;;;;;;;0.10;0.10;;;6.80;99.90;;;;;;5074609;28;20245;-80
2022/12/21 05:56:39;;;;;;;0.10;0.10;;;6.80;99.90;;;;;;5057741;28;20197;-80
2022/12/21 05:59:04;;;;;;;0.10;0.10;;;6.90;99.90;;;;;;5059037;28;20208;-81
2022/12/21 06:01:30;;;;;;;0.10;0.10;;;7.00;99.90;;;;;;5071280;28;20213;-80
2022/12/21 06:03:55;;;;;;;0.10;0.10;;;6.90;99.90;;;;;;5054454;28;20685;-80
2022/12/21 06:06:21;;;;;;;0.10;0.10;;;6.90;99.90;;;;;;5073097;28;20200;-80
2022/12/21 06:08:46;;;;;;;0.10;0.10;;;6.80;99.90;;;;;;5071664;28;20231;-81
2022/12/21 06:11:17;;;;;;;0.10;0.10;;;6.80;99.90;;;;;;5070631;28;20181;-80
2022/12/21 06:13:43;;;;;;;0.10;0.10;;;6.80;99.90;;;;;;5072616;28;20180;-80
2022/12/21 06:16:12;;;;;;;0.00;0.00;;;6.80;99.90;;;;;;5074752;28;20181;-81
2022/12/21 06:18:39;;;;;;;0.03;0.03;;;7.00;99.90;;;;;;5073751;28;20177;-80
2022/12/21 06:21:05;;;;;;;0.10;0.10;;;7.00;99.90;;;;;;5057108;28;20181;-80
2022/12/21 06:23:31;;;;;;;0.10;0.10;;;7.20;99.90;;;;;;5057657;28;20234;-81
2022/12/21 06:25:58;;;;;;;0.10;0.10;;;7.20;99.90;;;;;;5072814;28;20213;-80
2022/12/21 06:28:25;;;;;;;0.10;0.10;;;7.30;99.90;;;;;;5059901;28;20737;-81
2022/12/21 06:30:52;;;;;;;0.00;0.00;;;7.40;99.90;;;;;;5056658;28;20208;-80
2022/12/21 06:33:19;;;;;;;0.10;0.10;;;7.30;99.90;;;;;;5061807;28;20563;-80
2022/12/21 06:35:45;;;;;;;0.10;0.10;;;7.20;99.90;;;;;;5055203;28;20185;-80
2022/12/21 06:38:10;;;;;;;0.10;0.10;;;7.40;99.90;;;;;;5060577;28;20185;-80
2022/12/21 06:40:36;;;;;;;0.10;0.10;;;7.50;99.90;;;;;;5058148;28;20202;-80
2022/12/21 06:43:01;;;;;;;0.10;0.10;;;7.60;99.90;;;;;;5074081;28;20181;-80
2022/12/21 06:45:27;;;;;;;0.00;0.00;;;7.70;99.90;;;;;;5076136;28;20179;-80
2022/12/21 06:47:53;;;;;;;0.10;0.10;;;7.80;99.90;;;;;;5073010;28;20216;-80
2022/12/21 06:50:20;;;;;;;0.10;0.10;;;7.80;99.90;;;;;;5076165;28;20194;-82
2022/12/21 06:52:47;;;;;;;0.10;0.10;;;7.60;99.90;;;;;;5061371;28;20182;-82
2022/12/21 06:55:12;;;;;;;0.10;0.10;;;7.50;99.90;;;;;;5074953;28;20208;-82
2022/12/21 06:57:38;;;;;;;0.10;0.10;;;7.40;99.90;;;;;;5072533;28;20584;-81
2022/12/21 07:00:04;;;;;;;0.10;0.10;;;7.30;99.90;;;;;;5071452;28;20206;-80
2022/12/21 07:02:30;;;;;;;0.10;0.10;;;7.20;99.90;;;;;;5050234;28;20181;-80
2022/12/21 07:04:55;;;;;;;0.10;0.10;;;7.20;99.90;;;;;;5056176;28;20196;-80
2022/12/21 07:07:21;;;;;;;0.10;0.10;;;7.20;99.90;;;;;;5071227;28;20229;-80
2022/12/21 07:09:46;;;;;;;0.10;0.10;;;7.20;99.90;;;;;;5073221;28;20205;-80
2022/12/21 07:12:12;;;;;;;0.00;0.00;;;7.30;99.90;;;;;;5072478;28;20263;-80
2022/12/21 07:14:37;;;;;;;0.00;0.00;;;7.30;99.90;;;;;;5073760;28;20597;-80
2022/12/21 07:17:03;;;;;;;0.07;0.07;;;7.30;99.90;;;;;;5071393;28;20181;-80
2022/12/21 07:19:29;;;;;;;0.00;0.00;;;7.30;99.90;;;;;;5054808;28;20226;-80
2022/12/21 07:21:55;;;;;;;0.10;0.10;;;7.30;99.90;;;;;;5071610;28;20186;-80
2022/12/21 07:24:20;;;;;;;0.10;0.10;;;7.40;99.90;;;;;;5070708;28;20621;-80
2022/12/21 07:26:46;;;;;;;0.10;0.10;;;7.40;99.90;;;;;;5072574;28;20227;-80
2022/12/21 07:29:12;;;;;;;0.10;0.10;;;7.40;99.90;;;;;;5073393;28;20198;-80
2022/12/21 07:31:38;;;;;;;0.10;0.10;;;7.50;99.90;;;;;;5054906;28;20185;-80
2022/12/21 07:34:03;;;;;;;0.10;0.10;;;7.60;99.90;;;;;;5073971;28;20178;-80
2022/12/21 07:36:29;;;;;;;0.10;0.10;;;7.70;99.90;;;;;;5056922;28;20185;-81
2022/12/21 07:38:54;;;;;;;0.10;0.10;;;7.80;99.90;;;;;;5059546;28;20220;-80
2022/12/21 07:41:20;;;;;;;0.10;0.10;;;8.00;99.90;;;;;;5070618;28;20182;-80
2022/12/21 07:43:46;;;;;;;0.10;0.10;;;8.00;99.90;;;;;;5055020;28;20214;-80
2022/12/21 07:46:13;;;;;;;0.00;0.00;;;8.00;99.90;;;;;;5056409;28;20279;-80
2022/12/21 07:48:39;;;;;;;0.10;0.10;;;8.00;99.90;;;;;;5074405;28;20720;-81
2022/12/21 07:51:05;;;;;;;0.10;0.10;;;8.00;99.90;;;;;;5073781;28;20270;-81
2022/12/21 07:53:31;;;;;;;0.10;0.10;;;7.80;99.90;;;;;;5071088;28;20184;-81
2022/12/21 07:56:17;;;;;;;0.10;0.10;;;7.70;99.90;;;;;;5072562;28;20198;-81
2022/12/21 07:58:42;;;;;;;0.10;0.10;;;7.70;99.90;;;;;;5057537;28;20302;-81
2022/12/21 08:01:14;;;;;;;0.10;0.10;;;7.60;99.90;;;;;;5058714;28;20401;-81
2022/12/21 08:03:41;;;;;;;0.10;0.10;;;7.60;99.90;;;;;;5075009;28;20650;-80
2022/12/21 08:06:07;;;;;;;0.10;0.10;;;7.70;99.90;;;;;;5056744;28;20289;-81
2022/12/21 08:08:34;;;;;;;0.10;0.10;;;7.90;99.90;;;;;;5055706;28;20189;-80
2022/12/21 08:10:59;;;;;;;0.00;0.00;;;7.80;99.90;;;;;;5053457;28;20277;-80
2022/12/21 08:13:25;;;;;;;0.10;0.10;;;7.70;99.90;;;;;;5056215;28;20301;-81
2022/12/21 08:16:05;;;;;;;0.10;0.10;;;7.60;99.90;;;;;;5069984;28;20238;-82
2022/12/21 08:18:32;;;;;;;0.10;0.10;;;7.50;99.90;;;;;;5053155;28;20180;-81
2022/12/21 08:20:58;;;;;;;0.07;0.07;;;7.50;99.90;;;;;;5066765;28;20192;-81
2022/12/21 08:23:24;;;;;;;0.10;0.10;;;7.50;99.90;;;;;;5054878;28;20193;-80
2022/12/21 08:25:49;;;;;;;0.10;0.10;;;7.60;99.90;;;;;;5072380;28;20187;-81
2022/12/21 08:28:15;;;;;;;0.10;0.10;;;7.70;99.90;;;;;;5070591;28;20179;-81
2022/12/21 08:30:41;;;;;;;0.00;0.00;;;7.80;99.90;;;;;;5058482;28;20217;-81
2022/12/21 08:33:06;;;;;;;0.10;0.10;;;7.80;99.90;;;;;;5072578;28;20176;-81
2022/12/21 08:35:32;;;;;;;0.10;0.10;;;7.70;99.90;;;;;;5057718;28;20182;-81
2022/12/21 08:37:58;;;;;;;0.10;0.10;;;7.80;99.90;;;;;;5055525;28;20355;-80
2022/12/21 08:40:23;;;;;;;0.10;0.10;;;7.70;99.90;;;;;;5054443;28;20218;-81
2022/12/21 08:42:49;;;;;;;0.10;0.10;;;7.80;99.90;;;;;;5055390;28;20196;-81
2022/12/21 08:45:14;;;;;;;0.10;0.10;;;7.90;99.90;;;;;;5070132;28;20233;-81
2022/12/21 08:47:40;;;;;;;0.10;0.10;;;8.00;99.90;;;;;;5072575;28;20274;-80
2022/12/21 08:50:06;;;;;;;0.10;0.10;;;8.10;99.90;;;;;;5056146;28;20204;-80
2022/12/21 08:52:32;;;;;;;0.10;0.10;;;8.20;99.90;;;;;;5053607;28;20179;-81
2022/12/21 08:54:58;;;;;;;0.10;0.10;;;8.20;99.90;;;;;;5070273;28;20223;-81
2022/12/21 08:57:23;;;;;;;0.10;0.10;;;8.20;99.90;;;;;;5070002;28;20223;-81
2022/12/21 08:59:49;;;;;;;0.03;0.03;;;8.30;99.90;;;;;;5071349;28;20205;-80
2022/12/21 09:02:15;;;;;;;0.10;0.10;;;8.30;99.90;;;;;;5070566;28;20196;-81
2022/12/21 09:04:41;;;;;;;0.10;0.10;;;8.30;99.90;;;;;;5057519;28;20191;-80
2022/12/21 09:07:07;;;;;;;0.10;0.10;;;8.30;99.90;;;;;;5069713;28;20302;-81
2022/12/21 09:09:33;;;;;;;0.10;0.10;;;8.10;99.90;;;;;;5056728;28;20591;-81
2022/12/21 09:11:59;;;;;;;0.10;0.10;;;8.20;99.90;;;;;;5070909;28;20203;-81
2022/12/21 09:14:25;;;;;;;0.10;0.10;;;8.20;99.90;;;;;;5050153;28;20188;-81
2022/12/21 09:16:51;;;;;;;0.10;0.10;;;8.20;99.90;;;;;;5053163;28;20222;-81
2022/12/21 09:19:17;;;;;;;0.10;0.10;;;8.30;99.90;;;;;;5054452;28;20228;-83
2022/12/21 09:21:43;;;;;;;0.10;0.10;;;8.10;99.90;;;;;;5062130;28;20549;-81
2022/12/21 09:24:08;;;;;;;0.10;0.10;;;8.10;99.90;;;;;;5065634;28;20194;-81
2022/12/21 09:26:34;;;;;;;0.10;0.10;;;8.00;99.90;;;;;;5069873;28;20302;-81
2022/12/21 09:29:00;;;;;;;0.03;0.03;;;8.20;99.90;;;;;;5069626;28;20238;-81
2022/12/21 09:31:25;;;;;;;0.00;0.00;;;8.20;99.90;;;;;;5070183;28;20187;-81
2022/12/21 09:33:53;;;;;;;0.10;0.10;;;8.20;99.90;;;;;;5053531;28;20190;-81
2022/12/21 09:36:19;;;;;;;0.10;0.10;;;8.30;99.90;;;;;;5053765;28;20186;-82
2022/12/21 09:38:45;;;;;;;0.10;0.10;;;8.30;99.90;;;;;;5055224;28;20203;-82
2022/12/21 09:41:28;;;;;;;0.00;0.00;;;8.30;99.90;;;;;;5058330;28;20196;-82
2022/12/21 09:44:19;;;;;;;0.10;0.10;;;8.30;99.90;;;;;;5072289;28;20185;-81
2022/12/21 09:46:48;;;;;;;0.10;0.10;;;8.40;99.90;;;;;;5072441;28;20597;-80
2022/12/21 09:49:22;;;;;;;0.10;0.10;;;8.30;99.90;;;;;;5053126;28;20300;-80
2022/12/21 09:51:57;;;;;;;0.10;0.10;;;8.40;99.90;;;;;;5056611;28;20230;-81
2022/12/21 09:54:37;;;;;;;0.10;0.10;;;8.50;99.90;;;;;;5057808;28;20262;-81
2022/12/21 09:57:06;;;;;;;0.00;0.00;;;8.60;99.90;;;;;;5072150;28;20201;-81
2022/12/21 09:59:31;;;;;;;0.10;0.10;;;8.70;99.90;;;;;;5054448;28;20218;-80
2022/12/21 10:02:14;;;;;;;0.30;0.30;;;8.90;99.90;;;;;;5072379;28;20219;-80
2022/12/21 10:05:02;;;;;;;0.10;0.10;;;9.00;99.90;;;;;;5057458;28;20176;-80
2022/12/21 10:07:33;;;;;;;0.10;0.10;;;9.20;99.90;;;;;;5071486;28;20260;-81
2022/12/21 10:10:18;;;;;;;0.10;0.10;;;9.20;99.90;;;;;;5072137;28;20217;-81
2022/12/21 10:12:59;;;;;;;0.10;0.10;;;9.30;99.90;;;;;;5071626;28;20184;-80
2022/12/21 10:15:36;;;;;;;0.10;0.10;;;9.20;99.90;;;;;;5053747;28;20177;-81
2022/12/21 10:18:11;;;;;;;0.10;0.10;;;9.10;99.90;;;;;;5070478;28;20599;-80
2022/12/21 10:20:59;;;;;;;0.10;0.10;;;9.10;99.90;;;;;;5072663;28;20212;-80
2022/12/21 10:23:29;;;;;;;0.10;0.10;;;9.10;99.90;;;;;;5084722;28;20193;-81
2022/12/21 10:25:57;;;;;;;0.10;0.10;;;9.20;99.90;;;;;;5054557;28;20267;-81
2022/12/21 10:28:36;;;;;;;0.00;0.00;;;9.30;99.90;;;;;;5070131;28;20194;-81
2022/12/21 10:31:07;;;;;;;0.10;0.10;;;9.30;99.90;;;;;;5056234;28;20254;-80
2022/12/21 10:33:39;;;;;;;0.00;0.00;;;9.60;99.90;;;;;;5055977;28;20209;-81
2022/12/21 10:36:05;;;;;;;0.10;0.10;;;9.70;99.90;;;;;;5069787;28;20702;-81
2022/12/21 10:38:35;;;;;;;0.10;0.10;;;9.70;99.90;;;;;;5071160;28;20195;-81
2022/12/21 10:41:07;;;;;;;0.10;0.10;;;9.70;99.90;;;;;;5071882;28;20193;-81
2022/12/21 10:43:38;;;;;;;0.10;0.10;;;9.70;99.90;;;;;;5061041;28;20207;-81
2022/12/21 10:46:05;;;;;;;0.10;0.10;;;10.10;99.90;;;;;;5059886;28;20714;-81
2022/12/21 10:48:31;;;;;;;0.10;0.10;;;10.40;99.90;;;;;;5060063;28;20189;-81
2022/12/21 10:51:12;;;;;;;0.10;0.10;;;10.60;99.90;;;;;;5059068;28;20200;-81
2022/12/21 10:53:38;;;;;;;0.10;0.10;;;10.50;99.90;;;;;;5071611;28;20186;-80
2022/12/21 10:56:04;;;;;;;0.10;0.10;;;10.20;99.90;;;;;;5070234;28;20181;-81
2022/12/21 10:58:33;;;;;;;0.07;0.07;;;10.40;99.90;;;;;;5070989;28;20566;-80
2022/12/21 11:01:03;;;;;;;0.10;0.10;;;10.50;99.90;;;;;;5076299;28;20235;-81
2022/12/21 11:03:31;;;;;;;0.10;0.10;;;10.80;99.90;;;;;;5060466;28;20174;-81
2022/12/21 11:06:09;;;;;;;0.10;0.10;;;10.90;99.90;;;;;;5059727;28;20555;-80
2022/12/21 11:08:47;;;;;;;0.10;0.10;;;10.90;99.90;;;;;;5075309;28;20181;-81
2022/12/21 11:11:34;;;;;;;0.00;0.00;;;10.90;99.90;;;;;;5072615;28;20754;-80
2022/12/21 11:14:14;;;;;;;0.10;0.10;;;10.80;99.90;;;;;;5059221;28;21170;-81
2022/12/21 11:16:41;;;;;;;0.10;0.10;;;10.90;99.90;;;;;;5058378;28;20193;-81
2022/12/21 11:19:12;;;;;;;0.10;0.10;;;11.30;99.90;;;;;;5058362;28;20213;-81
2022/12/21 11:21:51;;;;;;;0.10;0.10;;;11.60;99.90;;;;;;5060410;28;20309;-81
2022/12/21 11:24:31;;;;;;;0.10;0.10;;;11.70;99.90;;;;;;5058307;28;20185;-81
2022/12/21 11:27:01;;;;;;;0.10;0.10;;;11.80;99.90;;;;;;5057300;28;20222;-81
2022/12/21 11:29:44;;;;;;;0.00;0.00;;;11.90;99.90;;;;;;5068177;28;20206;-80
2022/12/21 11:32:12;;;;;;;0.10;0.10;;;11.80;99.90;;;;;;5081227;28;20178;-82
2022/12/21 11:34:39;;;;;;;0.10;0.10;;;11.90;99.90;;;;;;5049701;28;20197;-81
2022/12/21 11:37:26;;;;;;;0.10;0.10;;;12.20;99.90;;;;;;5060350;28;21337;-81
2022/12/21 11:39:54;;;;;;;0.10;0.10;;;12.00;99.90;;;;;;5071789;28;20267;-81
2022/12/21 11:42:22;;;;;;;0.10;0.10;;;12.00;99.90;;;;;;5073830;28;20291;-78
2022/12/21 11:44:50;;;;;;;0.10;0.10;;;11.80;99.90;;;;;;5069741;28;20543;-81
2022/12/21 11:47:22;;;;;;;0.10;0.10;;;11.40;99.90;;;;;;5057814;28;20201;-79
2022/12/21 11:50:03;;;;;;;0.10;0.10;;;11.80;99.90;;;;;;5073153;28;20220;-79
2022/12/21 11:52:42;;;;;;;0.10;0.10;;;12.00;99.90;;;;;;5070316;28;20225;-79
2022/12/21 11:55:17;;;;;;;0.10;0.10;;;12.10;99.90;;;;;;5069059;28;20482;-80
2022/12/21 11:57:54;;;;;;;0.10;0.10;;;12.10;99.90;;;;;;5056648;28;20205;-79
2022/12/21 12:00:22;;;;;;;0.10;0.10;;;12.10;99.90;;;;;;5070748;28;20262;-80
2022/12/21 12:03:15;;;;;;;0.10;0.10;;;12.10;99.90;;;;;;5054467;28;20774;-80
2022/12/21 12:06:20;;;;;;;0.10;0.10;;;12.30;99.90;;;;;;5068525;28;20212;-80
2022/12/21 12:08:59;;;;;;;0.10;0.10;;;12.50;99.90;;;;;;5068745;28;20188;-80
2022/12/21 12:11:42;;;;;;;0.10;0.10;;;12.40;99.90;;;;;;5056036;28;20208;-81
2022/12/21 12:14:27;;;;;;;0.10;0.10;;;12.50;99.90;;;;;;5067787;28;20503;-80
2022/12/21 12:17:10;;;;;;;0.10;0.10;;;12.50;99.90;;;;;;5070017;28;20657;-79
2022/12/21 12:20:15;;;;;;;0.10;0.10;;;12.00;99.90;;;;;;5068513;28;20204;-80
2022/12/21 12:23:04;;;;;;;0.10;0.10;;;11.80;99.90;;;;;;5054377;28;20620;-79
2022/12/21 12:25:42;;;;;;;0.00;0.00;;;11.50;99.90;;;;;;5057723;28;20694;-81
2022/12/21 12:28:16;;;;;;;0.10;0.10;;;11.50;99.90;;;;;;5072346;28;20538;-81
2022/12/21 12:31:08;;;;;;;0.07;0.07;;;11.80;99.90;;;;;;5059057;28;20223;-81
2022/12/21 12:33:52;;;;;;;0.10;0.10;;;11.90;99.90;;;;;;5070666;28;20189;-80
2022/12/21 12:36:34;;;;;;;0.10;0.10;;;12.50;99.90;;;;;;5069427;28;20601;-80
2022/12/21 12:39:14;;;;;;;0.10;0.10;;;12.10;99.90;;;;;;5072583;28;20209;-81
2022/12/21 12:42:21;;;;;;;0.10;0.10;;;12.20;99.90;;;;;;5072805;28;20211;-81
2022/12/21 12:45:06;;;;;;;0.10;0.10;;;12.10;99.90;;;;;;5053925;28;20674;-80
2022/12/21 12:47:55;;;;;;;0.10;0.10;;;12.00;99.90;;;;;;5055938;28;21291;-80
2022/12/21 12:50:26;;;;;;;0.10;0.10;;;11.80;99.90;;;;;;5069497;28;20202;-80
2022/12/21 12:53:16;;;;;;;0.10;0.10;;;11.90;99.90;;;;;;5069931;28;20188;-80
2022/12/21 12:55:57;;;;;;;0.10;0.10;;;12.00;99.90;;;;;;5072435;28;20246;-80
2022/12/21 12:58:50;;;;;;;0.10;0.10;;;11.90;99.90;;;;;;5053140;28;20221;-80
2022/12/21 13:01:40;;;;;;;0.10;0.10;;;11.90;99.90;;;;;;5069128;28;20180;-80
2022/12/21 13:04:31;;;;;;;0.10;0.10;;;11.60;99.90;;;;;;5055090;28;20189;-80
2022/12/21 13:07:08;;;;;;;0.10;0.10;;;11.50;99.90;;;;;;5054970;28;20259;-80
2022/12/21 13:09:40;;;;;;;0.10;0.10;;;11.50;99.90;;;;;;5053573;28;20834;-80
2022/12/21 13:12:15;;;;;;;0.10;0.10;;;11.40;99.90;;;;;;5068977;28;20216;-79
2022/12/21 13:14:59;;;;;;;0.10;0.10;;;11.60;99.90;;;;;;5054624;28;20194;-80
2022/12/21 13:17:48;;;;;;;0.10;0.10;;;11.70;99.90;;;;;;5057587;28;20173;-80
2022/12/21 13:20:17;;;;;;;0.10;0.10;;;11.70;99.90;;;;;;5071524;28;20201;-80
2022/12/21 13:22:46;;;;;;;0.10;0.10;;;11.60;99.90;;;;;;5054697;28;20200;-80
2022/12/21 13:25:34;;;;;;;0.10;0.10;;;11.60;99.90;;;;;;5058987;28;20173;-80
2022/12/21 13:28:00;;;;;;;0.10;0.10;;;11.60;99.90;;;;;;5068939;28;20212;-80
2022/12/21 13:30:28;;;;;;;0.10;0.10;;;11.60;99.90;;;;;;5057705;28;20200;-80